Time;durP1;ratioP1;P1;durP2;ratioP2;P2;SDS_P1;SDS_P2;PMS_P1;PMS_P2;Temp;Humidity;BMP_temperature;BMP_pressure;BME280_temperature;BME280_humidity;BME280_pressure;Samples;Min_cycle;Max_cycle;Signal;HPM_P1;HPM_P2
2022/11/28 00:01:57;;;;;;;;;73.67;56.67;;;;;5.06;100.00;100551.94;6314234;20;3622232;-57
2022/11/28 00:04:27;;;;;;;;;70.67;53.67;;;;;4.94;100.00;100557.56;6314017;20;3639873;-58
2022/11/28 00:06:58;;;;;;;;;74.00;53.00;;;;;5.14;100.00;100548.22;6311909;20;3638850;-58
2022/11/28 00:09:28;;;;;;;;;74.00;54.00;;;;;4.92;100.00;100540.75;6313444;20;3649378;-58
2022/11/28 00:11:57;;;;;;;;;72.33;54.67;;;;;5.09;100.00;100536.81;6311581;20;3636737;-55
2022/11/28 00:14:27;;;;;;;;;75.67;54.33;;;;;5.09;100.00;100536.81;6314998;20;3640932;-55
2022/11/28 00:16:56;;;;;;;;;79.33;56.00;;;;;4.84;100.00;100538.28;6313388;20;3644187;-59
2022/11/28 00:19:26;;;;;;;;;66.67;48.67;;;;;4.69;100.00;100535.13;6311565;20;3650396;-58
2022/11/28 00:21:55;;;;;;;;;80.33;58.00;;;;;4.83;100.00;100530.34;6282237;20;3640987;-61
2022/11/28 00:24:25;;;;;;;;;75.33;53.67;;;;;5.01;100.00;100531.69;6314325;20;3658651;-58
2022/11/28 00:26:55;;;;;;;;;79.33;55.00;;;;;4.76;100.00;100520.75;6310587;20;3650296;-59
2022/11/28 00:29:25;;;;;;;;;75.33;58.00;;;;;4.82;100.00;100536.59;6280149;20;3632601;-58
2022/11/28 00:31:54;;;;;;;;;81.00;55.67;;;;;4.79;100.00;100539.28;6312664;20;3630588;-58
2022/11/28 00:34:24;;;;;;;;;80.67;58.33;;;;;4.84;100.00;100534.72;6312833;20;3640945;-58
2022/11/28 00:36:53;;;;;;;;;69.00;54.33;;;;;4.80;100.00;100535.75;6279309;20;3631484;-58
2022/11/28 00:39:23;;;;;;;;;77.33;54.33;;;;;4.75;100.00;100535.84;6314899;20;3635680;-58
2022/11/28 00:41:52;;;;;;;;;70.00;54.00;;;;;4.77;100.00;100543.78;6315497;20;3616914;-56
2022/11/28 00:44:22;;;;;;;;;77.67;55.67;;;;;4.85;100.00;100547.16;6313705;20;3636803;-57
2022/11/28 00:46:52;;;;;;;;;75.67;53.00;;;;;4.91;100.00;100548.78;6313055;20;3653435;-58
2022/11/28 00:49:21;;;;;;;;;78.00;56.67;;;;;4.87;100.00;100548.00;6315369;20;3621115;-58
2022/11/28 00:51:51;;;;;;;;;79.00;54.33;;;;;4.96;100.00;100549.53;6311179;20;3639821;-58
2022/11/28 00:54:20;;;;;;;;;76.33;55.33;;;;;5.01;100.00;100556.50;6311984;20;3641937;-59
2022/11/28 00:56:50;;;;;;;;;70.00;51.00;;;;;4.90;100.00;100555.00;6313112;20;3639988;-58
2022/11/28 00:59:19;;;;;;;;;70.33;54.00;;;;;4.90;100.00;100539.94;6315254;20;3646079;-58
2022/11/28 01:01:49;;;;;;;;;74.67;54.00;;;;;4.96;100.00;100550.41;6312309;20;3639975;-58
2022/11/28 01:04:19;;;;;;;;;73.00;54.00;;;;;4.84;100.00;100551.59;6316994;20;3655563;-58
2022/11/28 01:06:49;;;;;;;;;84.33;60.67;;;;;4.84;100.00;100553.34;6279205;20;3634593;-59
2022/11/28 01:09:22;;;;;;;;;82.50;59.25;;;;;4.99;100.00;100542.34;6316182;20;3645117;-58
2022/11/28 01:11:53;;;;;;;;;76.33;55.67;;;;;5.17;100.00;100540.16;6309641;20;3638898;-58
2022/11/28 01:14:24;;;;;;;;;75.00;54.00;;;;;4.98;100.00;100545.94;6313735;20;3637820;-58
2022/11/28 01:16:54;;;;;;;;;78.67;56.67;;;;;4.84;100.00;100542.72;6311280;20;3623265;-56
2022/11/28 01:19:24;;;;;;;;;70.67;50.00;;;;;5.06;100.00;100541.28;6311970;20;3638840;-58
2022/11/28 01:21:53;;;;;;;;;67.33;52.67;;;;;4.88;100.00;100543.53;6311490;20;3630437;-58
2022/11/28 01:24:22;;;;;;;;;60.00;52.00;;;;;4.93;100.00;100546.97;6312832;20;2823194;-58
2022/11/28 01:26:51;;;;;;;;;76.67;55.00;;;;;4.91;100.00;100541.66;6279855;20;3627364;-58
2022/11/28 01:29:21;;;;;;;;;76.67;54.00;;;;;4.89;100.00;100545.28;6312592;20;3651294;-58
2022/11/28 01:31:51;;;;;;;;;77.67;55.00;;;;;4.88;100.00;100536.44;6277972;20;3649272;-58
2022/11/28 01:34:20;;;;;;;;;75.00;55.67;;;;;4.93;100.00;100529.19;6310269;20;3623168;-59
2022/11/28 01:36:50;;;;;;;;;75.67;55.00;;;;;5.05;100.00;100538.66;6307216;20;3639849;-59
2022/11/28 01:39:19;;;;;;;;;73.67;55.33;;;;;5.01;100.00;100545.84;6276501;20;3623153;-59
2022/11/28 01:41:49;;;;;;;;;71.67;55.00;;;;;4.87;100.00;100547.09;6310812;20;3632664;-59
2022/11/28 01:44:19;;;;;;;;;100.25;78.50;;;;;4.94;100.00;100538.91;6314870;20;4425273;-58
2022/11/28 01:46:49;;;;;;;;;110.50;90.25;;;;;4.91;100.00;100541.66;6311602;20;3689837;-58
2022/11/28 01:49:32;;;;;;;;;113.25;93.50;;;;;4.85;100.00;100544.47;6276725;20;3692006;-57
2022/11/28 01:52:10;;;;;;;;;79.00;57.50;;;;;4.96;100.00;100539.75;6275225;20;2883723;-58
2022/11/28 01:54:47;;;;;;;;;69.33;48.67;;;;;4.91;100.00;100531.03;6279210;20;3650354;-58
2022/11/28 01:57:23;;;;;;;;;73.33;55.00;;;;;4.85;100.00;100533.84;6274284;20;3640914;-58
2022/11/28 02:00:13;;;;;;;;;62.67;50.00;;;;;4.90;100.00;100523.06;6311096;20;3608578;-59
2022/11/28 02:03:19;;;;;;;;;75.67;52.00;;;;;5.02;100.00;100523.63;6309366;20;3654422;-58
2022/11/28 02:05:50;;;;;;;;;70.33;52.00;;;;;5.05;100.00;100520.03;6277181;20;3645091;-58
2022/11/28 02:08:19;;;;;;;;;94.00;64.50;;;;;5.11;100.00;100518.97;6309666;20;4417964;-58
2022/11/28 02:11:35;;;;;;;;;110.00;88.00;;;;;4.97;100.00;100517.56;6302778;20;1929500;-58
2022/11/28 02:14:59;;;;;;;;;76.00;56.67;;;;;4.74;100.00;100517.25;6276950;20;3619013;-59
2022/11/28 02:18:23;;;;;;;;;71.67;53.67;;;;;4.65;100.00;100506.84;6308941;20;3630519;-58
2022/11/28 02:21:24;;;;;;;;;110.25;90.25;;;;;4.80;100.00;100499.38;6307417;20;3699334;-58
2022/11/28 02:24:43;;;;;;;;;173.50;139.50;;;;;4.87;100.00;100496.53;6273418;20;1966050;-59
2022/11/28 02:27:50;;;;;;;;;214.00;169.00;;;;;4.94;100.00;100499.00;6270307;20;1961760;-58
2022/11/28 02:30:47;;;;;;;;;171.00;140.67;;;;;4.83;100.00;100495.75;6277819;20;3698167;-59
2022/11/28 02:33:34;;;;;;;;;121.75;101.00;;;;;4.95;100.00;100492.78;6275440;20;4458614;-59
2022/11/28 02:36:30;;;;;;;;;87.67;65.33;;;;;4.91;100.00;100493.75;6309552;20;3648251;-58
2022/11/28 02:39:16;;;;;;;;;90.33;77.67;;;;;5.01;100.00;100487.31;6311931;20;3648385;-58
2022/11/28 02:42:19;;;;;;;;;106.67;89.00;;;;;4.97;100.00;100493.59;6309170;20;3687802;-59
2022/11/28 02:45:28;;;;;;;;;93.25;73.25;;;;;5.05;100.00;100475.69;6280063;20;4431618;-58
2022/11/28 02:48:08;;;;;;;;;73.67;56.00;;;;;4.88;100.00;100485.00;6307759;20;3626330;-59
2022/11/28 02:51:08;;;;;;;;;84.75;61.00;;;;;4.73;100.00;100475.59;6309008;20;4414835;-58
2022/11/28 02:53:41;;;;;;;;;69.33;51.00;;;;;4.59;100.00;100478.63;6310863;20;3648188;-59
2022/11/28 02:56:12;;;;;;;;;64.00;47.33;;;;;4.72;100.00;100476.53;6310801;20;3627351;-58
2022/11/28 02:58:42;;;;;;;;;70.67;52.00;;;;;4.75;100.00;100476.44;6308107;20;2888835;-58
2022/11/28 03:01:23;;;;;;;;;71.33;54.00;;;;;4.63;100.00;100472.28;6310815;20;3630051;-59
2022/11/28 03:04:13;;;;;;;;;52.00;39.33;;;;;4.78;100.00;100482.56;6307559;20;3622157;-58
2022/11/28 03:07:07;;;;;;;;;63.33;47.00;;;;;4.79;100.00;100479.00;6308909;20;3646099;-58
2022/11/28 03:10:40;;;;;;;;;63.67;52.00;;;;;4.66;100.00;100471.34;6309308;20;3617994;-59
2022/11/28 03:13:26;;;;;;;;;60.00;43.00;;;;;4.65;100.00;100475.78;6305602;20;3626427;-58
2022/11/28 03:16:26;;;;;;;;;60.33;46.00;;;;;4.60;100.00;100467.91;6309014;20;3628617;-57
2022/11/28 03:19:05;;;;;;;;;59.67;47.00;;;;;4.71;100.00;100467.66;6310061;20;3628401;-57
2022/11/28 03:22:16;;;;;;;;;60.67;48.67;;;;;4.52;100.00;100477.88;6307868;20;3602367;-58
2022/11/28 03:25:30;;;;;;;;;66.67;47.33;;;;;4.42;100.00;100467.50;6308871;20;3642089;-57
2022/11/28 03:28:33;;;;;;;;;62.67;47.00;;;;;4.45;100.00;100468.31;6305301;20;3637952;-58
2022/11/28 03:31:41;;;;;;;;;63.33;46.00;;;;;4.54;100.00;100465.41;6308980;20;3627364;-58
2022/11/28 03:34:18;;;;;;;;;65.00;44.00;;;;;4.46;100.00;100470.06;6306365;20;3638816;-58
2022/11/28 03:37:09;;;;;;;;;58.33;44.67;;;;;4.48;100.00;100467.38;6306501;20;3614909;-58
2022/11/28 03:39:47;;;;;;;;;63.00;46.67;;;;;4.55;100.00;100460.97;6306358;20;3638278;-58
2022/11/28 03:42:21;;;;;;;;;58.00;42.00;;;;;4.55;100.00;100453.84;6309305;20;2874234;-58
2022/11/28 03:45:15;;;;;;;;;56.67;41.33;;;;;4.52;100.00;100453.06;6307344;20;3614824;-59
2022/11/28 03:47:57;;;;;;;;;60.67;42.00;;;;;4.68;100.00;100457.09;6304786;20;3630568;-58
2022/11/28 03:50:40;;;;;;;;;62.33;47.67;;;;;4.50;100.00;100455.78;6307990;20;3621117;-58
2022/11/28 03:53:21;;;;;;;;;52.50;40.00;;;;;4.64;100.00;100454.56;6308640;20;2848167;-59
2022/11/28 03:56:11;;;;;;;;;52.50;40.50;;;;;4.47;100.00;100445.19;6281131;20;2856651;-58
2022/11/28 03:58:58;;;;;;;;;48.50;40.50;;;;;4.51;100.00;100441.56;6279836;20;2853431;-58
2022/11/28 04:01:57;;;;;;;;;53.33;41.00;;;;;4.51;100.00;100441.56;6279742;20;2858854;-58
2022/11/28 04:04:53;;;;;;;;;57.00;43.67;;;;;4.46;100.00;100438.16;6311378;20;2870103;-58
2022/11/28 04:07:56;;;;;;;;;57.50;43.50;;;;;4.54;100.00;100430.84;6312927;20;2856508;-59
2022/11/28 04:11:02;;;;;;;;;61.67;43.00;;;;;4.38;100.00;100422.38;6281779;20;2886828;-59
2022/11/28 04:14:07;;;;;;;;;61.33;46.33;;;;;4.36;100.00;100425.97;6308194;20;3626295;-58
2022/11/28 04:16:41;;;;;;;;;68.33;48.67;;;;;4.54;100.00;100420.22;6312425;20;3639871;-58
2022/11/28 04:19:28;;;;;;;;;60.67;47.33;;;;;4.35;100.00;100421.59;6312401;20;2878512;-58
2022/11/28 04:22:19;;;;;;;;;62.00;47.33;;;;;4.42;100.00;100420.50;6313042;20;3622188;-58
2022/11/28 04:25:01;;;;;;;;;75.67;56.33;;;;;4.43;100.00;100408.13;6312398;20;3623354;-58
2022/11/28 04:27:38;;;;;;;;;60.00;46.33;;;;;4.36;100.00;100412.69;6310256;20;3625315;-57
2022/11/28 04:30:10;;;;;;;;;67.67;45.00;;;;;4.25;100.00;100402.31;6314605;20;3652369;-57
2022/11/28 04:32:48;;;;;;;;;60.00;42.50;;;;;4.30;100.00;100411.06;6312624;20;2871686;-58
2022/11/28 04:35:38;;;;;;;;;56.67;40.00;;;;;4.20;100.00;100406.00;6281202;20;3628525;-58
2022/11/28 04:38:11;;;;;;;;;54.50;41.00;;;;;4.34;100.00;100406.53;6310499;20;2858679;-56
2022/11/28 04:40:54;;;;;;;;;59.33;42.33;;;;;4.40;100.00;100406.41;6282251;20;2887863;-57
2022/11/28 04:43:31;;;;;;;;;55.00;45.00;;;;;4.15;100.00;100398.13;6312855;20;2860893;-59
2022/11/28 04:46:14;;;;;;;;;58.33;42.00;;;;;4.24;100.00;100397.03;6280621;20;2878434;-58
2022/11/28 04:48:44;;;;;;;;;70.67;51.00;;;;;4.15;100.00;100399.00;6313133;20;3640862;-58
2022/11/28 04:51:31;;;;;;;;;66.00;49.00;;;;;4.06;100.00;100395.72;6309123;20;3638881;-58
2022/11/28 04:54:47;;;;;;;;;69.33;48.00;;;;;4.29;100.00;100403.09;6311751;20;3639859;-58
2022/11/28 04:57:48;;;;;;;;;57.00;44.33;;;;;4.17;100.00;100393.66;6305380;20;2873178;-57
2022/11/28 05:00:26;;;;;;;;;66.33;46.67;;;;;4.20;100.00;100398.03;6312510;20;3631664;-58
2022/11/28 05:02:56;;;;;;;;;56.33;45.67;;;;;4.25;100.00;100390.81;6312647;20;3611785;-58
2022/11/28 05:05:27;;;;;;;;;54.00;42.00;;;;;4.36;100.00;100391.44;6306435;20;2499237;-58
2022/11/28 05:08:00;;;;;;;;;58.33;45.00;;;;;4.34;100.00;100390.59;6280535;20;3618074;-57
2022/11/28 05:10:30;;;;;;;;;64.33;45.00;;;;;4.30;100.00;100391.59;6312189;20;3646173;-59
2022/11/28 05:13:00;;;;;;;;;58.33;45.00;;;;;4.22;100.00;100396.22;6311800;20;2873342;-56
2022/11/28 05:15:29;;;;;;;;;53.67;37.33;;;;;4.32;100.00;100390.63;6314091;20;2873244;-59
2022/11/28 05:17:58;;;;;;;;;65.00;41.00;;;;;4.30;100.00;100394.25;6311760;20;2829507;-58
2022/11/28 05:20:28;;;;;;;;;64.67;48.00;;;;;4.20;100.00;100395.38;6283050;20;2876435;-58
2022/11/28 05:22:57;;;;;;;;;52.50;42.00;;;;;4.20;100.00;100384.75;6311789;20;2848241;-58
2022/11/28 05:25:26;;;;;;;;;57.67;39.33;;;;;4.15;100.00;100387.50;6282077;20;2879563;-56
2022/11/28 05:27:56;;;;;;;;;62.67;47.33;;;;;4.15;100.00;100388.38;6307053;20;3627358;-58
2022/11/28 05:30:25;;;;;;;;;60.00;46.00;;;;;4.23;100.00;100392.63;6314744;20;3638905;-57
2022/11/28 05:32:54;;;;;;;;;42.00;38.50;;;;;4.16;100.00;100392.78;6313497;20;2865063;-57
2022/11/28 05:35:24;;;;;;;;;52.67;42.33;;;;;4.29;100.00;100392.47;6280112;20;2861840;-57
2022/11/28 05:37:54;;;;;;;;;60.00;44.00;;;;;4.26;100.00;100387.25;6309569;20;3643211;-58
2022/11/28 05:40:23;;;;;;;;;58.00;45.00;;;;;4.14;100.00;100394.59;6311838;20;2883735;-58
2022/11/28 05:42:53;;;;;;;;;64.67;48.33;;;;;4.18;100.00;100390.94;6312929;20;3638788;-59
2022/11/28 05:45:22;;;;;;;;;67.00;46.67;;;;;4.30;100.00;100394.25;6312697;20;3638802;-58
2022/11/28 05:47:52;;;;;;;;;58.67;44.00;;;;;4.23;100.00;100397.94;6309813;20;3628415;-58
2022/11/28 05:50:22;;;;;;;;;59.33;45.00;;;;;4.13;100.00;100392.88;6312827;20;2873450;-56
2022/11/28 05:52:50;;;;;;;;;30.00;22.67;;;;;4.23;100.00;100392.63;6309877;20;3586747;-58
2022/11/28 05:55:20;;;;;;;;;69.33;48.67;;;;;4.45;100.00;100396.53;6311733;20;3640937;-56
2022/11/28 05:57:49;;;;;;;;;74.33;52.67;;;;;4.23;100.00;100396.16;6310622;20;3649280;-57
2022/11/28 06:00:20;;;;;;;;;60.67;46.33;;;;;4.09;100.00;100392.97;6278269;20;2873862;-59
2022/11/28 06:02:49;;;;;;;;;70.33;52.67;;;;;4.38;100.00;100394.94;6310967;20;3629853;-58
2022/11/28 06:05:19;;;;;;;;;67.33;46.67;;;;;4.34;100.00;100398.56;6313521;20;3638791;-56
2022/11/28 06:08:11;;;;;;;;;62.00;48.00;;;;;4.28;100.00;100404.03;6310317;20;3625368;-57
2022/11/28 06:10:40;;;;;;;;;62.67;49.33;;;;;4.16;100.00;100403.44;6313900;20;2866135;-58
2022/11/28 06:13:10;;;;;;;;;71.33;54.00;;;;;4.11;100.00;100410.63;6312579;20;3646217;-57
2022/11/28 06:15:43;;;;;;;;;69.67;49.67;;;;;4.11;100.00;100404.44;6313317;20;3658623;-58
2022/11/28 06:18:13;;;;;;;;;68.00;50.67;;;;;4.29;100.00;100405.75;6278000;20;3632560;-58
2022/11/28 06:20:42;;;;;;;;;70.67;54.33;;;;;4.25;100.00;100412.09;6312921;20;3623162;-57
2022/11/28 06:23:12;;;;;;;;;67.67;50.67;;;;;4.26;100.00;100411.16;6311327;20;3647127;-59
2022/11/28 06:25:41;;;;;;;;;80.67;58.33;;;;;4.40;100.00;100411.72;6311535;20;3634835;-58
2022/11/28 06:28:11;;;;;;;;;62.67;47.00;;;;;4.20;100.00;100416.63;6309406;20;3640892;-58
2022/11/28 06:30:43;;;;;;;;;61.67;47.67;;;;;4.36;100.00;100416.22;6312168;20;3621143;-58
2022/11/28 06:33:13;;;;;;;;;68.67;49.00;;;;;4.51;100.00;100422.09;6309501;20;3636708;-58
2022/11/28 06:35:42;;;;;;;;;57.67;45.33;;;;;3.90;100.00;100408.47;6313513;20;2869122;-58
2022/11/28 06:38:12;;;;;;;;;61.67;47.00;;;;;3.96;100.00;100409.19;6310324;20;3624296;-58
2022/11/28 06:40:42;;;;;;;;;61.33;44.67;;;;;4.27;100.00;100407.63;6308508;20;3631500;-58
2022/11/28 06:43:12;;;;;;;;;67.33;53.67;;;;;4.38;100.00;100413.53;6309724;20;3625264;-59
2022/11/28 06:45:41;;;;;;;;;58.00;45.00;;;;;4.33;100.00;100413.63;6313426;20;2865015;-56
2022/11/28 06:48:11;;;;;;;;;63.33;47.00;;;;;4.29;100.00;100419.06;6309312;20;3648181;-58
2022/11/28 06:50:40;;;;;;;;;64.00;49.00;;;;;4.32;100.00;100419.00;6310519;20;3624246;-59
2022/11/28 06:53:11;;;;;;;;;72.00;53.67;;;;;4.42;100.00;100415.19;6311527;20;2884858;-58
2022/11/28 06:55:41;;;;;;;;;90.00;71.33;;;;;4.52;100.00;100411.41;6309967;20;3665917;-58
2022/11/28 06:58:10;;;;;;;;;79.67;59.00;;;;;4.69;100.00;100418.09;6276497;20;3635681;-57
2022/11/28 07:00:40;;;;;;;;;75.00;56.67;;;;;4.55;100.00;100413.09;6309612;20;3631622;-56
2022/11/28 07:03:11;;;;;;;;;79.33;55.00;;;;;4.33;100.00;100418.09;6310423;20;3652378;-58
2022/11/28 07:05:41;;;;;;;;;125.25;103.25;;;;;4.25;100.00;100412.09;6279374;20;3722195;-58
2022/11/28 07:08:11;;;;;;;;;87.33;62.67;;;;;4.33;100.00;100418.09;6273981;20;3667002;-56
2022/11/28 07:10:40;;;;;;;;;69.33;55.00;;;;;4.49;100.00;100429.22;6278596;20;3626356;-57
2022/11/28 07:13:10;;;;;;;;;94.67;70.00;;;;;4.48;100.00;100438.13;6310162;20;3676417;-58
2022/11/28 07:15:49;;;;;;;;;179.00;140.67;;;;;4.39;100.00;100436.53;6281383;20;3690982;-57
2022/11/28 07:18:19;;;;;;;;;501.25;373.00;;;;;4.47;100.00;100433.69;6307140;20;4533598;-58
2022/11/28 07:20:47;;;;;;;;;105.50;83.00;;;;;4.54;100.00;100433.50;6274741;20;1956726;-58
2022/11/28 07:23:18;;;;;;;;;311.00;234.50;;;;;4.36;100.00;100431.31;6276169;20;3747201;-58
2022/11/28 07:25:48;;;;;;;;;370.50;287.50;;;;;4.48;100.00;100440.78;6277702;20;4536721;-58
2022/11/28 07:28:16;;;;;;;;;163.00;131.00;;;;;4.47;100.00;100439.88;6267895;20;1956592;-57
2022/11/28 07:31:09;;;;;;;;;310.25;256.25;;;;;4.73;100.00;100441.03;6283952;20;4485678;-58
2022/11/28 07:33:41;;;;;;;;;101.67;85.33;;;;;4.85;100.00;100435.41;6312692;20;3682746;-58
2022/11/28 07:36:16;;;;;;;;;105.33;97.33;;;;;4.70;100.00;100446.44;6281992;20;3659699;-57
2022/11/28 07:38:53;;;;;;;;;89.33;67.33;;;;;4.82;100.00;100435.50;6280059;20;3664905;-58
2022/11/28 07:41:24;;;;;;;;;73.00;55.67;;;;;4.43;100.00;100432.91;6282331;20;3627316;-58
2022/11/28 07:44:01;;;;;;;;;75.67;57.33;;;;;4.51;100.00;100436.25;6315046;20;2861898;-57
2022/11/28 07:46:32;;;;;;;;;63.67;51.00;;;;;4.53;100.00;100431.78;6313735;20;3614949;-57
2022/11/28 07:49:03;;;;;;;;;85.00;61.67;;;;;4.63;100.00;100435.06;6312173;20;3652330;-57
2022/11/28 07:51:33;;;;;;;;;106.50;92.25;;;;;4.66;100.00;100431.44;6315208;20;4434607;-58
2022/11/28 07:54:03;;;;;;;;;116.50;90.00;;;;;4.80;100.00;100431.97;6309814;20;1947614;-58
2022/11/28 07:56:37;;;;;;;;;195.00;142.50;;;;;4.82;100.00;100432.81;6283659;20;4463785;-56
2022/11/28 07:59:26;;;;;;;;;194.75;135.75;;;;;4.51;100.00;100424.75;6281622;20;4461755;-57
2022/11/28 08:01:54;;;;;;;;;161.00;116.00;;;;;4.81;100.00;100417.75;6308740;20;1937360;-57
2022/11/28 08:04:24;;;;;;;;;188.00;133.75;;;;;4.96;100.00;100422.69;6282057;20;4455428;-58
2022/11/28 08:06:54;;;;;;;;;187.00;127.75;;;;;5.05;100.00;100422.44;6281166;20;4455454;-58
2022/11/28 08:09:24;;;;;;;;;56.67;43.67;;;;;4.87;100.00;100422.94;6313748;20;2873212;-58
2022/11/28 08:11:53;;;;;;;;;62.00;45.67;;;;;4.79;100.00;100430.22;6315142;20;3646055;-58
2022/11/28 08:14:23;;;;;;;;;88.00;63.00;;;;;4.82;98.38;100419.53;6281990;20;3666940;-55
2022/11/28 08:16:51;;;;;;;;;143.00;109.00;;;;;5.03;99.81;100426.94;6276310;20;1953637;-55
2022/11/28 08:19:19;;;;;;;;;99.50;77.00;;;;;4.93;100.00;100417.44;6278676;20;1949407;-56
2022/11/28 08:21:53;;;;;;;;;60.67;46.33;;;;;4.82;100.00;100425.72;6283127;20;3623275;-56
2022/11/28 08:24:22;;;;;;;;;59.67;47.00;;;;;4.95;100.00;100415.63;6314319;20;3630457;-58
2022/11/28 08:26:51;;;;;;;;;59.67;45.67;;;;;4.95;100.00;100426.25;6315761;20;2862790;-59
2022/11/28 08:29:21;;;;;;;;;51.33;39.00;;;;;4.90;100.00;100420.19;6312323;20;2868013;-54
2022/11/28 08:31:51;;;;;;;;;86.75;64.50;;;;;5.11;100.00;100420.50;6319423;20;4400260;-56
2022/11/28 08:34:21;;;;;;;;;75.33;56.00;;;;;5.11;100.00;100420.50;6315203;20;3640911;-57
2022/11/28 08:36:49;;;;;;;;;159.50;126.50;;;;;5.14;99.78;100423.97;6312785;20;1955539;-56
2022/11/28 08:39:20;;;;;;;;;215.25;174.50;;;;;4.95;99.72;100420.03;6284528;20;3700392;-57
2022/11/28 08:41:58;;;;;;;;;91.33;64.00;;;;;5.01;100.00;100419.91;6284348;20;3652345;-58
2022/11/28 08:44:27;;;;;;;;;171.50;140.00;;;;;4.82;100.00;100417.72;6278732;20;1960750;-58
2022/11/28 08:46:59;;;;;;;;;76.00;55.67;;;;;5.14;99.89;100416.00;6281544;20;3643019;-57
2022/11/28 08:49:28;;;;;;;;;73.67;58.00;;;;;4.97;100.00;100421.75;6318306;20;2870235;-57
2022/11/28 08:51:56;;;;;;;;;59.00;40.00;;;;;5.08;100.00;100426.78;6313348;20;2484679;-58
2022/11/28 08:54:26;;;;;;;;;100.33;77.67;;;;;5.20;100.00;100420.28;6281946;20;3692971;-57
2022/11/28 08:56:55;;;;;;;;;72.33;51.67;;;;;5.30;100.00;100423.56;6283565;20;3651282;-58
2022/11/28 08:59:25;;;;;;;;;71.67;52.00;;;;;5.23;100.00;100420.19;6314653;20;3637857;-57
2022/11/28 09:01:55;;;;;;;;;76.67;56.33;;;;;5.12;100.00;100422.28;6316591;20;3630475;-56
2022/11/28 09:04:24;;;;;;;;;80.00;57.00;;;;;5.18;99.28;100417.63;6316422;20;3660776;-57
2022/11/28 09:06:54;;;;;;;;;60.33;45.67;;;;;5.32;98.14;100419.03;6283404;20;2876373;-57
2022/11/28 09:09:24;;;;;;;;;59.33;46.33;;;;;4.89;97.33;100410.44;6313040;20;3615956;-58
2022/11/28 09:11:58;;;;;;;;;55.00;39.00;;;;;5.11;98.25;100410.75;6315646;20;3624233;-57
2022/11/28 09:14:27;;;;;;;;;56.67;41.67;;;;;4.86;99.06;100410.53;6313601;20;2870063;-58
2022/11/28 09:16:57;;;;;;;;;67.67;52.33;;;;;5.23;99.45;100407.72;6316024;20;3640364;-57
2022/11/28 09:19:26;;;;;;;;;52.00;45.00;;;;;5.52;98.88;100410.50;6315205;20;2857571;-58
2022/11/28 09:21:55;;;;;;;;;56.67;44.67;;;;;5.81;95.49;100410.47;6281508;20;3603459;-58
2022/11/28 09:24:25;;;;;;;;;50.00;40.00;;;;;5.42;93.32;100407.22;6314224;20;2851500;-55
2022/11/28 09:26:54;;;;;;;;;59.67;41.00;;;;;5.50;94.65;100390.13;6285349;20;3623197;-57
2022/11/28 09:29:23;;;;;;;;;54.00;41.67;;;;;5.54;92.22;100392.69;6283773;20;2867002;-58
2022/11/28 09:31:52;;;;;;;;;51.00;40.50;;;;;5.68;91.85;100390.47;6311094;20;2853494;-56
2022/11/28 09:34:21;;;;;;;;;54.33;42.00;;;;;5.57;92.32;100384.59;6283964;20;2858817;-56
2022/11/28 09:36:51;;;;;;;;;56.33;39.00;;;;;5.68;92.13;100398.44;6312920;20;3628431;-57
2022/11/28 09:39:20;;;;;;;;;48.50;39.00;;;;;5.50;93.03;100387.44;6312719;20;2854486;-59
2022/11/28 09:42:12;;;;;;;;;47.50;39.00;;;;;5.44;91.96;100382.28;6281638;20;2842068;-58
2022/11/28 09:44:49;;;;;;;;;54.00;41.33;;;;;5.68;92.97;100374.47;6284172;20;2875497;-55
2022/11/28 09:47:28;;;;;;;;;38.00;32.00;;;;;5.75;92.69;100372.50;6313373;20;3605459;-57
2022/11/28 09:50:14;;;;;;;;;54.00;42.00;;;;;5.52;93.91;100373.19;6279165;20;2850317;-58
2022/11/28 09:52:58;;;;;;;;;58.00;45.67;;;;;5.92;93.30;100373.75;6281069;20;3625237;-59
2022/11/28 09:55:45;;;;;;;;;53.67;39.67;;;;;5.97;92.08;100359.41;6313259;20;2861778;-58
2022/11/28 09:58:32;;;;;;;;;16.67;12.00;;;;;5.66;91.96;100363.00;6311372;20;2797179;-57
2022/11/28 10:01:25;;;;;;;;;48.67;40.00;;;;;5.59;93.21;100356.13;6314572;20;3578526;-57
2022/11/28 10:04:41;;;;;;;;;52.00;40.00;;;;;5.77;93.90;100352.03;6312820;20;2857689;-57
2022/11/28 10:08:39;;;;;;;;;49.67;39.33;;;;;5.22;92.12;100359.88;6308929;20;2853626;-57
2022/11/28 10:11:56;;;;;;;;;44.67;35.00;;;;;5.30;93.00;100352.53;6311936;20;2871223;-58
2022/11/28 10:14:47;;;;;;;;;52.33;44.00;;;;;5.56;93.83;100359.75;6308997;20;2862879;-56
2022/11/28 10:17:30;;;;;;;;;38.00;33.00;;;;;5.68;92.24;100364.69;6315456;20;3599207;-59
2022/11/28 10:20:18;;;;;;;;;48.00;39.50;;;;;5.59;92.80;100353.47;6277038;20;2842278;-57
2022/11/28 10:23:20;;;;;;;;;49.00;41.00;;;;;5.36;93.77;100351.47;6281233;20;2849230;-55
2022/11/28 10:25:55;;;;;;;;;49.00;36.33;;;;;5.52;94.74;100347.44;6280267;20;3627374;-58
2022/11/28 10:28:36;;;;;;;;;53.67;39.33;;;;;5.50;94.74;100346.59;6314663;20;2875522;-56
2022/11/28 10:31:49;;;;;;;;;59.00;45.33;;;;;5.61;93.86;100340.94;6311039;20;3627355;-56
2022/11/28 10:34:44;;;;;;;;;64.67;46.67;;;;;5.82;93.81;100345.63;6309157;20;3649254;-57
2022/11/28 10:37:20;;;;;;;;;57.33;46.67;;;;;5.77;94.71;100344.03;6312573;20;2861731;-58
2022/11/28 10:39:50;;;;;;;;;45.00;40.00;;;;;5.53;95.10;100340.31;6312677;20;2839886;-57
2022/11/28 10:42:43;;;;;;;;;50.33;38.33;;;;;5.58;94.99;100343.72;6282226;20;2862374;-56
2022/11/28 10:45:34;;;;;;;;;83.00;60.67;;;;;5.50;94.62;100336.84;6312210;20;3649325;-57
2022/11/28 10:48:58;;;;;;;;;63.67;47.33;;;;;5.66;94.33;100333.69;6312911;20;3631606;-55
2022/11/28 10:52:07;;;;;;;;;59.33;47.67;;;;;5.74;96.67;100331.69;6313265;20;2864026;-56
2022/11/28 10:55:25;;;;;;;;;84.00;66.00;;;;;5.59;96.29;100329.50;6311867;20;3626412;-58
2022/11/28 10:58:30;;;;;;;;;58.00;47.00;;;;;5.53;94.53;100327.88;6312661;20;2814891;-56
2022/11/28 11:01:00;;;;;;;;;80.33;60.33;;;;;5.71;94.57;100324.66;6283777;20;3643041;-56
2022/11/28 11:03:34;;;;;;;;;65.00;48.00;;;;;5.86;93.33;100315.28;6307553;20;3635720;-57
2022/11/28 11:06:04;;;;;;;;;44.33;35.67;;;;;5.61;94.83;100319.63;6311752;20;3617977;-56
2022/11/28 11:08:40;;;;;;;;;79.67;57.67;;;;;5.97;94.12;100311.44;6309656;20;3642990;-58
2022/11/28 11:11:30;;;;;;;;;88.33;66.33;;;;;5.60;92.09;100308.13;6312258;20;3655930;-54
2022/11/28 11:14:08;;;;;;;;;74.67;51.67;;;;;5.81;95.04;100309.22;6310375;20;3645082;-55
2022/11/28 11:16:59;;;;;;;;;74.33;55.00;;;;;5.81;94.26;100306.56;6310166;20;3637737;-55
2022/11/28 11:19:34;;;;;;;;;45.50;39.50;;;;;5.60;93.33;100291.25;6309122;20;2841943;-57
2022/11/28 11:22:30;;;;;;;;;65.00;48.00;;;;;5.88;93.66;100301.91;6280310;20;3632566;-53
2022/11/28 11:25:13;;;;;;;;;58.33;42.33;;;;;5.97;93.60;100296.31;6310350;20;3628388;-55
2022/11/28 11:28:04;;;;;;;;;46.50;38.00;;;;;5.84;95.55;100301.13;6307878;20;2854510;-56
2022/11/28 11:30:41;;;;;;;;;48.33;35.67;;;;;5.78;95.51;100296.00;6279856;20;3641932;-56
2022/11/28 11:33:16;;;;;;;;;73.67;53.00;;;;;6.02;96.14;100294.38;6313899;20;3637774;-57
2022/11/28 11:35:48;;;;;;;;;64.67;51.33;;;;;5.99;95.14;100299.81;6312254;20;3634757;-54
2022/11/28 11:38:21;;;;;;;;;61.33;47.00;;;;;6.22;94.95;100288.38;6276496;20;3614896;-57
2022/11/28 11:40:51;;;;;;;;;55.00;43.00;;;;;6.03;95.13;100285.47;6311908;20;2860820;-57
2022/11/28 11:43:32;;;;;;;;;59.00;47.00;;;;;5.88;95.29;100292.13;6309613;20;3601429;-54
2022/11/28 11:46:13;;;;;;;;;58.00;46.00;;;;;6.01;95.58;100297.09;6312854;20;2862824;-56